Time;durP1;ratioP1;P1;durP2;ratioP2;P2;SDS_P1;SDS_P2;PMS_P1;PMS_P2;Temp;Humidity;BMP_temperature;BMP_pressure;BME280_temperature;BME280_humidity;BME280_pressure;Samples;Min_cycle;Max_cycle;Signal;HPM_P1;HPM_P2
2022/01/08 10:09:29;;;;;;;;;;;;;;;3.47;85.35;97155.78;4216848;27;10435;-69
2022/01/08 10:11:32;;;;;;;;;;;;;;;3.60;85.04;97160.72;4208471;28;6061;-67
2022/01/08 10:13:40;;;;;;;;;;;;;;;3.57;85.53;97153.16;4206521;28;5899;-68
2022/01/08 10:18:06;;;;;;;;;;;;;;;3.64;85.43;97153.44;4210901;28;5794;-69
2022/01/08 10:20:07;;;;;;;;;;;;;;;3.58;86.02;97159.22;4210487;28;5734;-68
2022/01/08 10:22:17;;;;;;;;;;;;;;;3.66;85.57;97159.34;4212796;28;6665;-68
2022/01/08 10:24:21;;;;;;;;;;;;;;;3.69;86.21;97156.44;4214581;28;5771;-69
2022/01/08 10:26:31;;;;;;;;;;;;;;;3.75;85.67;97163.72;4213278;28;5718;-69
2022/01/08 10:28:38;;;;;;;;;;;;;;;3.77;85.34;97167.03;4213085;28;5783;-69
2022/01/08 10:30:39;;;;;;;;;;;;;;;3.75;85.18;97166.34;4210694;28;5688;-69
2022/01/08 10:32:54;;;;;;;;;;;;;;;3.69;85.98;97169.50;4207203;28;5705;-69
2022/01/08 10:34:56;;;;;;;;;;;;;;;3.64;86.30;97169.13;4205696;28;5707;-69
2022/01/08 10:37:04;;;;;;;;;;;;;;;3.63;86.66;97160.44;4215143;28;6377;-69
2022/01/08 10:39:12;;;;;;;;;;;;;;;3.70;86.84;97163.31;4209086;28;5713;-69
2022/01/08 10:41:16;;;;;;;;;;;;;;;3.45;87.84;97165.56;4211656;28;5789;-69
2022/01/08 10:43:23;;;;;;;;;;;;;;;3.62;85.96;97155.34;4202909;28;5701;-69
2022/01/08 10:45:25;;;;;;;;;;;;;;;3.40;86.89;97152.09;4206466;28;5752;-68
2022/01/08 10:47:27;;;;;;;;;;;;;;;3.59;87.21;97153.00;4201845;28;5819;-68
2022/01/08 10:49:40;;;;;;;;;;;;;;;3.68;86.24;97142.53;4211809;28;5702;-68
2022/01/08 10:51:42;;;;;;;;;;;;;;;3.72;86.50;97153.53;4211319;28;5707;-69
2022/01/08 10:53:50;;;;;;;;;;;;;;;3.79;86.64;97150.22;4205957;28;5825;-69
2022/01/08 10:55:52;;;;;;;;;;;;;;;3.75;87.06;97145.41;4200521;28;5750;-68
2022/01/08 10:57:53;;;;;;;;;;;;;;;3.78;86.16;97138.09;4211457;28;5705;-68
2022/01/08 10:59:55;;;;;;;;;;;;;;;3.90;85.75;97143.16;4209560;28;5893;-68
2022/01/08 11:02:03;;;;;;;;;;;;;;;3.97;85.66;97145.06;4207873;28;6662;-68
2022/01/08 11:04:07;;;;;;;;;;;;;;;3.78;86.91;97135.50;4214261;28;5778;-69
2022/01/08 11:06:08;;;;;;;;;;;;;;;3.93;85.95;97133.22;4207732;28;6467;-69
2022/01/08 11:08:14;;;;;;;;;;;;;;;3.90;85.63;97133.53;4206132;28;5658;-69
2022/01/08 11:10:18;;;;;;;;;;;;;;;3.85;83.53;97130.53;4184483;28;5848;-69
2022/01/08 11:12:23;;;;;;;;;;;;;;;3.91;84.19;97129.13;4158324;28;5771;-68
2022/01/08 11:16:51;;;;;;;;;;;;;;;4.03;84.14;97134.03;4171701;28;5838;-69
2022/01/08 11:18:53;;;;;;;;;;;;;;;4.01;82.42;97124.69;4180908;28;5838;-69
2022/01/08 11:20:56;;;;;;;;;;;;;;;4.00;82.76;97123.84;4181918;28;6691;-69
2022/01/08 11:23:00;;;;;;;;;;;;;;;4.06;83.09;97120.66;4179081;28;5829;-68
2022/01/08 11:25:07;;;;;;;;;;;;;;;4.20;82.86;97119.38;4172950;28;5926;-71
2022/01/08 11:27:09;;;;;;;;;;;;;;;4.15;82.61;97110.28;4176643;28;5138;-69
2022/01/08 11:29:11;;;;;;;;;;;;;;;4.20;82.76;97113.31;4178332;28;5948;-70
2022/01/08 11:31:15;;;;;;;;;;;;;;;3.90;82.38;97107.38;4172455;28;5867;-69
2022/01/08 11:33:23;;;;;;;;;;;;;;;3.98;82.58;97112.72;4178593;28;5980;-70
2022/01/08 11:35:26;;;;;;;;;;;;;;;4.07;82.93;97103.97;4167721;28;5847;-68
2022/01/08 11:37:30;;;;;;;;;;;;;;;4.04;83.07;97103.44;4178212;28;5838;-69
2022/01/08 11:39:33;;;;;;;;;;;;;;;4.03;82.95;97104.41;4178641;28;6046;-70
2022/01/08 11:41:35;;;;;;;;;;;;;;;4.19;82.90;97103.78;4182665;28;5108;-69
2022/01/08 11:43:37;;;;;;;;;;;;;;;4.15;82.63;97090.16;4184131;28;7757;-70
2022/01/08 11:45:47;;;;;;;;;;;;;;;4.16;82.24;97106.69;4179353;28;5877;-69
2022/01/08 11:47:52;;;;;;;;;;;;;;;4.08;82.44;97108.25;4167396;28;5887;-69
2022/01/08 11:49:54;;;;;;;;;;;;;;;4.04;82.63;97109.50;4167537;28;5835;-69
2022/01/08 11:52:19;;;;;;;;;;;;;;;3.90;81.76;97104.75;4167526;28;5882;-70
2022/01/08 11:54:40;;;;;;;;;;;;;;;4.04;82.42;97113.91;4168754;28;5843;-69
2022/01/08 11:56:43;;;;;;;;;;;;;;;4.03;82.30;97102.63;4183703;28;5826;-69
2022/01/08 11:59:02;;;;;;;;;;;;;;;3.95;82.48;97093.84;4179923;28;5853;-69
2022/01/08 12:01:06;;;;;;;;;;;;;;;4.03;82.42;97086.09;4184174;28;6632;-70
2022/01/08 12:03:39;;;;;;;;;;;;;;;4.17;82.11;97077.75;4182429;28;5784;-69
2022/01/08 12:05:41;;;;;;;;;;;;;;;4.23;82.08;97074.56;4155067;28;5827;-70
2022/01/08 12:07:47;;;;;;;;;;;;;;;4.26;81.35;97062.97;4170709;28;6539;-69
2022/01/08 12:10:02;;;;;;;;;;;;;;;4.32;81.92;97065.03;4182523;28;5968;-73
2022/01/08 12:12:06;;;;;;;;;;;;;;;4.36;81.01;97061.13;4182820;28;5820;-72
2022/01/08 12:14:19;;;;;;;;;;;;;;;4.41;81.35;97053.66;4198994;28;5811;-71
2022/01/08 12:16:38;;;;;;;;;;;;;;;4.37;nan;97049.69;4204537;28;5722;-69
2022/01/08 12:18:53;;;;;;;;;;;;;;;4.31;80.90;97043.25;4215647;28;5731;-69
2022/01/08 12:20:56;;;;;;;;;;;;;;;4.26;80.90;97040.25;4215702;28;5718;-69
2022/01/08 12:23:35;;;;;;;;;;;;;;;4.27;80.60;97041.91;4216764;28;6467;-69
2022/01/08 12:25:41;;;;;;;;;;;;;;;4.21;80.33;97025.97;4216859;28;5894;-69
2022/01/08 12:27:45;;;;;;;;;;;;;;;4.24;81.00;97025.69;4216708;28;5707;-69
2022/01/08 12:29:47;;;;;;;;;;;;;;;3.96;81.54;97017.84;4216885;28;5706;-69
2022/01/08 12:31:50;;;;;;;;;;;;;;;4.06;82.00;97023.00;4207578;28;5974;-70
2022/01/08 12:34:25;;;;;;;;;;;;;;;4.19;80.95;97022.66;4210374;28;6506;-70
2022/01/08 12:36:31;;;;;;;;;;;;;;;4.04;81.21;97014.50;4216732;28;5825;-69
2022/01/08 12:38:37;;;;;;;;;;;;;;;4.05;81.39;97019.56;4216725;28;5774;-69
2022/01/08 12:40:50;;;;;;;;;;;;;;;4.08;80.86;97021.94;4216641;28;5770;-68
2022/01/08 12:42:56;;;;;;;;;;;;;;;4.06;81.47;97018.59;4216130;28;5778;-70
2022/01/08 12:45:02;;;;;;;;;;;;;;;4.02;81.64;97009.41;4208594;28;5730;-70
2022/01/08 12:47:04;;;;;;;;;;;;;;;4.13;81.17;97000.53;4200912;28;5722;-72
2022/01/08 12:49:05;;;;;;;;;;;;;;;4.16;80.94;96996.78;4209324;28;5769;-72
2022/01/08 12:51:07;;;;;;;;;;;;;;;4.13;80.45;96991.88;4212788;28;5726;-71
2022/01/08 12:53:30;;;;;;;;;;;;;;;4.12;80.54;96988.44;4209599;28;5727;-71
2022/01/08 12:55:51;;;;;;;;;;;;;;;4.15;80.25;96979.47;4189680;28;5799;-71
2022/01/08 12:57:53;;;;;;;;;;;;;;;4.22;80.27;96972.66;4209531;28;5834;-71
2022/01/08 12:59:57;;;;;;;;;;;;;;;4.21;79.81;96973.63;4204959;28;5842;-71
2022/01/08 13:02:00;;;;;;;;;;;;;;;4.26;79.91;96961.75;4216431;28;6300;-72
2022/01/08 13:04:02;;;;;;;;;;;;;;;4.12;80.46;96964.06;4216302;28;5835;-72
2022/01/08 13:06:20;;;;;;;;;;;;;;;4.19;80.05;96960.72;4215223;28;5707;-72
2022/01/08 13:08:26;;;;;;;;;;;;;;;4.25;79.92;96960.09;4182260;28;5767;-70
2022/01/08 13:10:32;;;;;;;;;;;;;;;4.13;80.33;96961.28;4174829;28;5676;-68
2022/01/08 13:12:33;;;;;;;;;;;;;;;4.04;80.40;96957.75;4180840;28;5797;-69
2022/01/08 13:14:35;;;;;;;;;;;;;;;4.19;80.34;96950.25;4181646;28;5813;-69
2022/01/08 13:16:45;;;;;;;;;;;;;;;4.22;79.44;96949.94;4179743;28;5886;-68
2022/01/08 13:18:55;;;;;;;;;;;;;;;4.22;79.76;96946.50;4182215;28;5822;-69
2022/01/08 13:21:02;;;;;;;;;;;;;;;4.14;80.02;96941.19;4180704;28;5805;-69
2022/01/08 13:23:03;;;;;;;;;;;;;;;4.23;79.76;96921.97;4181485;28;5807;-69
2022/01/08 13:25:08;;;;;;;;;;;;;;;4.26;79.43;96919.03;4181505;28;5813;-69
2022/01/08 13:27:18;;;;;;;;;;;;;;;4.27;79.59;96905.00;4177183;28;5813;-69
2022/01/08 13:29:30;;;;;;;;;;;;;;;4.24;78.57;96900.88;4155291;28;5695;-69
2022/01/08 13:31:45;;;;;;;;;;;;;;;4.27;79.00;96895.34;4177378;28;5927;-69
2022/01/08 13:33:55;;;;;;;;;;;;;;;4.33;78.75;96886.91;4168124;28;5898;-69
2022/01/08 13:36:00;;;;;;;;;;;;;;;4.43;78.96;96876.34;4168405;28;5842;-69
2022/01/08 13:38:01;;;;;;;;;;;;;;;4.45;78.85;96870.94;4174676;28;5715;-69
2022/01/08 13:40:06;;;;;;;;;;;;;;;4.45;79.00;96866.53;4167270;28;5911;-69
2022/01/08 13:42:12;;;;;;;;;;;;;;;4.45;78.32;96863.09;4177572;28;5814;-69
2022/01/08 13:44:16;;;;;;;;;;;;;;;4.44;79.09;96854.41;4176597;28;5118;-69
2022/01/08 13:46:17;;;;;;;;;;;;;;;4.36;79.16;96851.75;4175138;28;5897;-69
2022/01/08 13:48:19;;;;;;;;;;;;;;;4.44;79.29;96851.81;4180730;28;5888;-70
2022/01/08 13:50:40;;;;;;;;;;;;;;;4.42;79.15;96842.44;4176163;28;5802;-69
2022/01/08 13:52:47;;;;;;;;;;;;;;;4.28;79.29;96842.03;4171107;28;5838;-73
2022/01/08 13:54:50;;;;;;;;;;;;;;;4.26;79.63;96837.91;4171348;28;5783;-68
2022/01/08 13:56:51;;;;;;;;;;;;;;;4.13;80.65;96830.47;4178037;28;5821;-66
2022/01/08 13:59:03;;;;;;;;;;;;;;;4.35;80.06;96827.34;4172227;28;5782;-68
2022/01/08 14:01:06;;;;;;;;;;;;;;;4.38;79.33;96819.19;4173470;28;5842;-65
2022/01/08 14:03:29;;;;;;;;;;;;;;;4.22;79.63;96815.66;4176039;28;5730;-68
2022/01/08 14:05:32;;;;;;;;;;;;;;;4.37;79.40;96817.56;4175979;28;6011;-67
2022/01/08 14:07:36;;;;;;;;;;;;;;;4.39;79.09;96812.16;4181076;28;5738;-67
2022/01/08 14:09:39;;;;;;;;;;;;;;;4.42;79.21;96811.88;4212000;28;5714;-67
2022/01/08 14:11:41;;;;;;;;;;;;;;;4.29;78.22;96804.41;4188716;28;6200;-67
2022/01/08 14:13:53;;;;;;;;;;;;;;;4.24;78.50;96803.25;4207085;28;5841;-67
2022/01/08 14:16:08;;;;;;;;;;;;;;;4.35;78.02;96792.50;4207585;28;6388;-68
2022/01/08 14:18:14;;;;;;;;;;;;;;;4.28;77.44;96797.53;4192745;28;5693;-67
2022/01/08 14:20:22;;;;;;;;;;;;;;;4.28;77.96;96786.25;4191148;28;5788;-67
2022/01/08 14:22:25;;;;;;;;;;;;;;;4.26;77.72;96782.97;4211527;28;5715;-68
2022/01/08 14:24:34;;;;;;;;;;;;;;;4.24;77.09;96784.91;4214530;28;5762;-67
2022/01/08 14:26:37;;;;;;;;;;;;;;;4.28;77.05;96781.81;4213970;28;5834;-67
2022/01/08 14:28:39;;;;;;;;;;;;;;;4.18;76.18;96782.91;4211962;28;5755;-67
2022/01/08 14:30:41;;;;;;;;;;;;;;;4.00;77.00;96773.31;4189854;28;6538;-68
2022/01/08 14:32:44;;;;;;;;;;;;;;;4.18;76.75;96769.81;4213559;28;5715;-69
2022/01/08 14:34:51;;;;;;;;;;;;;;;4.25;75.93;96757.78;4213680;28;5730;-68
2022/01/08 14:37:00;;;;;;;;;;;;;;;4.09;76.61;96743.63;4207804;28;5725;-69
2022/01/08 14:39:02;;;;;;;;;;;;;;;4.01;75.85;96747.97;4214444;28;5846;-68
2022/01/08 14:41:04;;;;;;;;;;;;;;;3.87;76.97;96746.75;4196212;28;5799;-68
2022/01/08 14:43:09;;;;;;;;;;;;;;;3.95;77.00;96749.41;4214405;28;5807;-68
2022/01/08 14:45:18;;;;;;;;;;;;;;;4.13;76.53;96735.47;4216258;28;5629;-67
2022/01/08 14:47:29;;;;;;;;;;;;;;;4.01;74.90;96727.88;4216629;28;5769;-69
2022/01/08 14:49:31;;;;;;;;;;;;;;;4.09;75.29;96724.50;4216412;28;5699;-69
2022/01/08 14:51:33;;;;;;;;;;;;;;;4.11;75.02;96719.09;4217209;28;5911;-69
2022/01/08 14:53:34;;;;;;;;;;;;;;;4.06;75.05;96720.38;4217007;28;5718;-70
2022/01/08 14:55:38;;;;;;;;;;;;;;;4.19;75.01;96713.91;4182168;28;5892;-69
2022/01/08 14:57:40;;;;;;;;;;;;;;;4.12;74.16;96705.88;4216766;28;5724;-68
2022/01/08 14:59:41;;;;;;;;;;;;;;;3.98;74.46;96701.22;4217427;28;6206;-67
2022/01/08 15:01:44;;;;;;;;;;;;;;;4.03;75.63;96698.94;4217231;28;5711;-69
2022/01/08 15:03:45;;;;;;;;;;;;;;;4.16;74.57;96698.50;4217191;28;5848;-68
2022/01/08 15:05:47;;;;;;;;;;;;;;;4.05;75.29;96695.19;4194808;28;5804;-67
2022/01/08 15:07:49;;;;;;;;;;;;;;;4.19;75.89;96687.72;4217052;28;5699;-68
2022/01/08 15:09:50;;;;;;;;;;;;;;;4.25;75.93;96682.72;4217323;28;5707;-68
2022/01/08 15:11:52;;;;;;;;;;;;;;;4.12;76.07;96674.47;4217565;28;5824;-68
2022/01/08 15:13:53;;;;;;;;;;;;;;;4.23;75.27;96687.28;4198799;28;5932;-68
2022/01/08 15:15:55;;;;;;;;;;;;;;;4.19;75.63;96678.13;4214988;28;5714;-67
2022/01/08 15:17:57;;;;;;;;;;;;;;;4.23;75.65;96679.44;4198564;28;5855;-67
2022/01/08 15:20:08;;;;;;;;;;;;;;;4.06;75.41;96668.03;4216952;28;5710;-67
2022/01/08 15:22:10;;;;;;;;;;;;;;;4.18;75.81;96673.00;4190921;28;5850;-67
2022/01/08 15:24:11;;;;;;;;;;;;;;;4.19;75.30;96666.78;4211125;28;5715;-67
2022/01/08 15:26:13;;;;;;;;;;;;;;;4.23;74.30;96662.91;4215185;28;5710;-67
2022/01/08 15:28:15;;;;;;;;;;;;;;;4.18;74.31;96667.78;4216660;28;5718;-67
2022/01/08 15:30:16;;;;;;;;;;;;;;;4.26;75.06;96666.03;4214449;28;5799;-70
2022/01/08 15:32:21;;;;;;;;;;;;;;;4.29;74.06;96670.94;4198459;28;5924;-67
2022/01/08 15:34:23;;;;;;;;;;;;;;;4.29;74.61;96663.09;4216571;28;5786;-67
2022/01/08 15:36:24;;;;;;;;;;;;;;;4.15;74.61;96655.84;4217275;28;5711;-66
2022/01/08 15:38:26;;;;;;;;;;;;;;;4.01;75.88;96649.41;4215174;28;5778;-67
2022/01/08 15:40:28;;;;;;;;;;;;;;;4.07;76.17;96651.38;4215387;28;5772;-69
2022/01/08 15:42:29;;;;;;;;;;;;;;;4.17;75.07;96643.41;4195048;28;6542;-65
2022/01/08 15:44:31;;;;;;;;;;;;;;;4.18;73.91;96633.75;4216688;28;5822;-69
2022/01/08 15:46:32;;;;;;;;;;;;;;;4.03;73.54;96634.34;4216463;28;5711;-67
2022/01/08 15:48:34;;;;;;;;;;;;;;;4.10;74.65;96637.19;4198612;28;5819;-68
2022/01/08 15:50:36;;;;;;;;;;;;;;;4.17;74.84;96642.59;4216441;28;5796;-68
2022/01/08 15:52:37;;;;;;;;;;;;;;;4.17;74.65;96650.44;4215301;28;5723;-68
2022/01/08 15:54:39;;;;;;;;;;;;;;;4.24;74.40;96639.19;4214511;28;5812;-67
2022/01/08 15:56:42;;;;;;;;;;;;;;;4.18;74.89;96631.16;4208677;28;5898;-68
2022/01/08 15:58:45;;;;;;;;;;;;;;;4.23;74.57;96631.50;4197916;28;5871;-67
2022/01/08 16:00:47;;;;;;;;;;;;;;;4.12;74.51;96631.78;4213132;28;5806;-68
2022/01/08 16:02:49;;;;;;;;;;;;;;;4.25;74.69;96624.31;4215450;28;5883;-68
2022/01/08 16:04:52;;;;;;;;;;;;;;;4.27;73.93;96624.97;4216450;28;5823;-68
2022/01/08 16:06:53;;;;;;;;;;;;;;;4.22;74.21;96627.25;4215062;28;5710;-67
2022/01/08 16:08:56;;;;;;;;;;;;;;;4.29;74.47;96626.44;4212927;28;5624;-67
2022/01/08 16:10:57;;;;;;;;;;;;;;;4.30;75.25;96619.41;4192927;28;5974;-67
2022/01/08 16:12:59;;;;;;;;;;;;;;;4.23;74.75;96621.03;4211420;28;6430;-67
2022/01/08 16:15:00;;;;;;;;;;;;;;;4.16;75.23;96609.56;4212146;28;5703;-68
2022/01/08 16:17:02;;;;;;;;;;;;;;;3.98;75.78;96607.88;4214482;28;5805;-67
2022/01/08 16:19:04;;;;;;;;;;;;;;;4.20;75.94;96608.28;4212020;28;5711;-67
2022/01/08 16:21:06;;;;;;;;;;;;;;;4.24;76.39;96599.13;4212439;28;5628;-67
2022/01/08 16:23:07;;;;;;;;;;;;;;;4.33;76.80;96596.38;4213564;28;5754;-67
2022/01/08 16:25:12;;;;;;;;;;;;;;;4.39;76.82;96594.91;4213092;28;5927;-67
2022/01/08 16:27:17;;;;;;;;;;;;;;;4.37;77.45;96600.31;4192797;28;5821;-67
2022/01/08 16:29:19;;;;;;;;;;;;;;;4.34;77.53;96587.56;4214911;28;5963;-68
2022/01/08 16:31:23;;;;;;;;;;;;;;;4.38;77.38;96585.44;4210187;28;5725;-68
2022/01/08 16:33:24;;;;;;;;;;;;;;;4.35;76.85;96577.91;4215749;28;5714;-68
2022/01/08 16:35:28;;;;;;;;;;;;;;;4.42;76.26;96578.91;4197364;28;5900;-68
2022/01/08 16:37:29;;;;;;;;;;;;;;;4.25;77.19;96571.97;4215388;28;5814;-68
2022/01/08 16:39:31;;;;;;;;;;;;;;;4.29;77.00;96557.59;4197400;28;5188;-68
2022/01/08 16:41:34;;;;;;;;;;;;;;;4.30;77.09;96548.75;4193126;28;5751;-68
2022/01/08 16:43:36;;;;;;;;;;;;;;;4.43;77.20;96558.78;4211464;28;5732;-71
2022/01/08 16:45:40;;;;;;;;;;;;;;;4.40;76.65;96554.69;4214029;28;6309;-70
2022/01/08 16:47:42;;;;;;;;;;;;;;;4.45;76.24;96547.19;4211085;28;5354;-69
2022/01/08 16:49:44;;;;;;;;;;;;;;;4.29;76.52;96544.50;4194578;28;6674;-68
2022/01/08 16:51:45;;;;;;;;;;;;;;;4.40;76.83;96544.22;4174013;28;6846;-68
2022/01/08 16:53:48;;;;;;;;;;;;;;;4.43;76.85;96543.09;4216515;28;5754;-71
2022/01/08 16:55:49;;;;;;;;;;;;;;;4.35;76.25;96536.84;4213628;28;5806;-69
2022/01/08 16:57:51;;;;;;;;;;;;;;;4.49;76.49;96537.19;4189364;28;5870;-70
2022/01/08 16:59:52;;;;;;;;;;;;;;;4.59;76.24;96532.63;4189405;28;5094;-72
2022/01/08 17:01:54;;;;;;;;;;;;;;;4.32;75.90;96521.47;4209172;28;5758;-72
2022/01/08 17:03:56;;;;;;;;;;;;;;;4.15;76.62;96503.28;4207644;28;5735;-71
2022/01/08 17:05:58;;;;;;;;;;;;;;;4.33;75.64;96501.34;4192535;28;5746;-71
2022/01/08 17:08:00;;;;;;;;;;;;;;;4.25;75.36;96503.94;4193678;28;5802;-72
2022/01/08 17:10:04;;;;;;;;;;;;;;;4.32;75.32;96502.34;4213790;28;5715;-73
2022/01/08 17:12:11;;;;;;;;;;;;;;;4.47;75.06;96492.03;4210866;28;6839;-71
2022/01/08 17:14:13;;;;;;;;;;;;;;;4.54;75.20;96486.00;4195330;28;5866;-71
2022/01/08 17:16:15;;;;;;;;;;;;;;;4.52;75.12;96474.84;4214991;28;5722;-71
2022/01/08 17:18:18;;;;;;;;;;;;;;;4.64;74.79;96470.94;4194146;28;5773;-72
2022/01/08 17:20:20;;;;;;;;;;;;;;;4.48;74.55;96468.31;4213068;28;5712;-72
2022/01/08 17:22:22;;;;;;;;;;;;;;;4.27;74.55;96466.16;4212738;28;5744;-69
2022/01/08 17:24:24;;;;;;;;;;;;;;;4.18;74.46;96467.13;4178697;28;5789;-69
2022/01/08 17:26:27;;;;;;;;;;;;;;;4.03;75.30;96456.47;4210456;28;6465;-69
2022/01/08 17:28:29;;;;;;;;;;;;;;;4.16;75.12;96458.63;4214129;28;5995;-69
2022/01/08 17:30:31;;;;;;;;;;;;;;;4.09;74.96;96448.00;4212488;28;5837;-74
2022/01/08 17:32:36;;;;;;;;;;;;;;;4.27;75.06;96454.88;4209155;28;5707;-72
2022/01/08 17:34:37;;;;;;;;;;;;;;;4.28;74.36;96452.09;4193769;28;5794;-72
2022/01/08 17:36:39;;;;;;;;;;;;;;;4.25;74.57;96456.84;4214702;28;5722;-72
2022/01/08 17:38:40;;;;;;;;;;;;;;;4.28;74.20;96459.13;4211169;28;5711;-72
2022/01/08 17:40:43;;;;;;;;;;;;;;;4.25;74.18;96449.81;4214811;28;5819;-71
2022/01/08 17:42:44;;;;;;;;;;;;;;;4.26;74.28;96446.22;4179607;28;5765;-70
2022/01/08 17:44:46;;;;;;;;;;;;;;;4.31;74.47;96445.75;4213475;28;5714;-71
2022/01/08 17:46:48;;;;;;;;;;;;;;;4.18;75.09;96448.00;4191537;28;5822;-71
2022/01/08 17:48:50;;;;;;;;;;;;;;;4.20;74.81;96438.22;4209622;28;5858;-73
2022/01/08 17:50:51;;;;;;;;;;;;;;;4.25;74.83;96456.84;4192450;28;5845;-71
2022/01/08 17:52:53;;;;;;;;;;;;;;;4.21;75.22;96451.13;4212103;28;5867;-71
2022/01/08 17:54:54;;;;;;;;;;;;;;;4.29;75.39;96450.31;4211494;28;6149;-73
2022/01/08 17:56:56;;;;;;;;;;;;;;;4.25;74.91;96441.97;4212646;28;5750;-73
2022/01/08 17:59:07;;;;;;;;;;;;;;;4.24;75.52;96445.56;4211951;28;5753;-68
2022/01/08 18:01:09;;;;;;;;;;;;;;;4.14;75.27;96450.13;4194862;28;5718;-68
2022/01/08 18:03:10;;;;;;;;;;;;;;;4.18;75.11;96448.81;4210961;28;5632;-68
2022/01/08 18:05:13;;;;;;;;;;;;;;;4.23;75.26;96437.88;4194476;28;5753;-71
2022/01/08 18:07:17;;;;;;;;;;;;;;;4.26;75.78;96443.59;4189626;28;5536;-70
2022/01/08 18:09:19;;;;;;;;;;;;;;;4.06;77.01;96440.47;4156952;28;5692;-70
2022/01/08 18:11:21;;;;;;;;;;;;;;;4.09;77.20;96441.97;4175812;28;5642;-70
2022/01/08 18:13:23;;;;;;;;;;;;;;;4.11;76.36;96439.19;4189546;28;5118;-70
2022/01/08 18:15:25;;;;;;;;;;;;;;;4.06;76.97;96435.22;4193479;28;7721;-69
2022/01/08 18:17:27;;;;;;;;;;;;;;;4.05;77.35;96435.38;4187553;28;5731;-71
2022/01/08 18:19:29;;;;;;;;;;;;;;;3.89;79.41;96424.91;4174574;28;5805;-72
2022/01/08 18:21:31;;;;;;;;;;;;;;;3.70;80.76;96424.19;4194017;28;5762;-73
2022/01/08 18:23:32;;;;;;;;;;;;;;;3.91;79.17;96429.00;4203674;28;5628;-74
2022/01/08 18:25:34;;;;;;;;;;;;;;;3.99;79.02;96426.41;4177699;28;5642;-73
2022/01/08 18:27:36;;;;;;;;;;;;;;;3.97;79.64;96424.94;4177611;28;5838;-72
2022/01/08 18:29:39;;;;;;;;;;;;;;;4.01;79.84;96413.97;4195887;28;5774;-70
2022/01/08 18:31:41;;;;;;;;;;;;;;;4.02;80.38;96410.38;4195472;28;6045;-71
2022/01/08 18:33:44;;;;;;;;;;;;;;;4.00;81.51;96414.97;4196274;28;5841;-71
2022/01/08 18:35:48;;;;;;;;;;;;;;;3.87;81.80;96388.47;4195908;28;5951;-71
2022/01/08 18:37:50;;;;;;;;;;;;;;;3.86;83.17;96389.44;4163324;28;5771;-72
2022/01/08 18:39:52;;;;;;;;;;;;;;;3.69;85.29;96380.75;4194491;28;5688;-71
2022/01/08 18:41:56;;;;;;;;;;;;;;;3.80;84.21;96382.22;4193421;28;5638;-69
2022/01/08 18:43:57;;;;;;;;;;;;;;;3.72;84.82;96363.91;4197475;28;5628;-69
2022/01/08 18:46:00;;;;;;;;;;;;;;;3.65;85.58;96365.56;4182579;28;5888;-69
2022/01/08 18:48:04;;;;;;;;;;;;;;;3.60;85.53;96367.81;4199917;28;5634;-68
2022/01/08 18:50:06;;;;;;;;;;;;;;;3.82;84.20;96355.91;4202209;28;5690;-67
2022/01/08 18:52:09;;;;;;;;;;;;;;;3.76;83.96;96353.00;4203107;28;5671;-69
2022/01/08 18:54:11;;;;;;;;;;;;;;;3.61;86.01;96348.53;4183476;28;5676;-69
2022/01/08 18:56:13;;;;;;;;;;;;;;;3.55;85.27;96344.78;4194734;28;5627;-69
2022/01/08 18:58:14;;;;;;;;;;;;;;;3.50;85.93;96336.59;4187193;28;5114;-69
2022/01/08 19:00:17;;;;;;;;;;;;;;;3.51;86.22;96333.00;4179239;28;8381;-68
2022/01/08 19:02:19;;;;;;;;;;;;;;;3.57;85.42;96315.88;4196867;28;5663;-67
2022/01/08 19:04:20;;;;;;;;;;;;;;;3.68;84.53;96311.13;4188114;28;5208;-72
2022/01/08 19:06:25;;;;;;;;;;;;;;;3.47;86.04;96308.97;4195315;28;7700;-70
2022/01/08 19:08:26;;;;;;;;;;;;;;;3.45;85.94;96300.50;4188977;28;5631;-72
2022/01/08 19:10:28;;;;;;;;;;;;;;;3.55;85.29;96297.72;4204285;28;5094;-72
2022/01/08 19:12:29;;;;;;;;;;;;;;;3.43;85.61;96292.00;4193058;28;7755;-71
2022/01/08 19:14:34;;;;;;;;;;;;;;;3.24;86.58;96292.28;4206455;28;5720;-70
2022/01/08 19:16:35;;;;;;;;;;;;;;;3.23;86.98;96288.03;4208374;28;5740;-72
2022/01/08 19:18:39;;;;;;;;;;;;;;;3.36;86.60;96277.94;4195937;28;6303;-70
2022/01/08 19:20:42;;;;;;;;;;;;;;;3.34;86.52;96273.84;4215476;28;5746;-71
2022/01/08 19:22:45;;;;;;;;;;;;;;;3.26;87.51;96276.44;4193856;28;5655;-70
2022/01/08 19:24:47;;;;;;;;;;;;;;;3.06;88.12;96273.28;4218896;28;5752;-70
2022/01/08 19:26:51;;;;;;;;;;;;;;;3.21;87.14;96258.66;4189225;28;5255;-68
2022/01/08 19:28:54;;;;;;;;;;;;;;;3.23;87.27;96251.47;4215316;28;6850;-70
2022/01/08 19:30:56;;;;;;;;;;;;;;;3.24;86.69;96247.88;4191179;28;5869;-71
2022/01/08 19:32:57;;;;;;;;;;;;;;;3.26;86.83;96250.31;4219390;28;5624;-70
2022/01/08 19:34:59;;;;;;;;;;;;;;;3.24;86.93;96242.66;4213941;28;5381;-70
2022/01/08 19:37:01;;;;;;;;;;;;;;;3.16;88.69;96224.34;4215502;28;6771;-71
2022/01/08 19:39:04;;;;;;;;;;;;;;;3.09;88.70;96223.38;4217519;28;5938;-70
2022/01/08 19:41:05;;;;;;;;;;;;;;;3.06;88.78;96210.59;4192161;28;5736;-72
2022/01/08 19:43:07;;;;;;;;;;;;;;;3.19;88.46;96203.97;4194254;28;5706;-69
2022/01/08 19:45:09;;;;;;;;;;;;;;;3.17;89.14;96197.22;4218670;28;5700;-70
2022/01/08 19:47:12;;;;;;;;;;;;;;;3.23;89.46;96199.22;4188303;28;5897;-69
2022/01/08 19:49:14;;;;;;;;;;;;;;;3.03;90.70;96183.03;4187844;28;5615;-67
2022/01/08 19:51:16;;;;;;;;;;;;;;;2.85;91.93;96183.16;4203257;28;5934;-68
2022/01/08 19:53:17;;;;;;;;;;;;;;;2.85;91.54;96177.94;4207512;28;5714;-68
2022/01/08 19:55:19;;;;;;;;;;;;;;;2.91;92.29;96172.06;4211539;28;5825;-69
2022/01/08 19:57:22;;;;;;;;;;;;;;;2.97;91.84;96160.19;4190869;28;5950;-70
2022/01/08 19:59:24;;;;;;;;;;;;;;;2.99;91.21;96160.84;4213472;28;5826;-67
2022/01/08 20:01:25;;;;;;;;;;;;;;;3.02;91.12;96149.25;4214092;28;5629;-67
2022/01/08 20:03:27;;;;;;;;;;;;;;;2.89;91.77;96149.72;4214597;28;5619;-66
2022/01/08 20:05:30;;;;;;;;;;;;;;;2.69;92.76;96137.94;4212011;28;5779;-66
2022/01/08 20:07:32;;;;;;;;;;;;;;;2.87;92.05;96131.63;4214551;28;6285;-66
2022/01/08 20:09:35;;;;;;;;;;;;;;;2.80;91.88;96130.59;4197888;28;5623;-66
2022/01/08 20:11:37;;;;;;;;;;;;;;;2.83;91.64;96127.69;4211227;28;5707;-66
2022/01/08 20:13:38;;;;;;;;;;;;;;;2.88;91.07;96122.81;4217121;28;5704;-65
2022/01/08 20:15:41;;;;;;;;;;;;;;;2.82;91.38;96115.59;4213486;28;5740;-67
2022/01/08 20:17:43;;;;;;;;;;;;;;;2.67;93.28;96101.56;4210023;28;5727;-66
2022/01/08 20:19:45;;;;;;;;;;;;;;;2.68;93.01;96089.31;4213077;28;5718;-66
2022/01/08 20:21:46;;;;;;;;;;;;;;;2.82;92.79;96075.63;4205268;28;6323;-66
2022/01/08 20:23:48;;;;;;;;;;;;;;;2.96;91.39;96076.78;4199994;28;5971;-65
2022/01/08 20:25:51;;;;;;;;;;;;;;;2.73;93.06;96068.78;4202337;28;5747;-65
2022/01/08 20:27:52;;;;;;;;;;;;;;;2.78;92.87;96048.22;4208135;28;5712;-66
2022/01/08 20:29:54;;;;;;;;;;;;;;;2.79;93.44;96045.44;4197400;28;5861;-69
2022/01/08 20:31:56;;;;;;;;;;;;;;;2.83;92.29;96036.34;4214221;28;5629;-69
2022/01/08 20:33:58;;;;;;;;;;;;;;;2.68;93.90;96026.69;4196872;28;5797;-70
2022/01/08 20:35:59;;;;;;;;;;;;;;;2.71;94.30;96024.56;4211159;28;5671;-72
2022/01/08 20:38:01;;;;;;;;;;;;;;;2.93;92.34;96015.25;4209884;28;5635;-72
2022/01/08 20:40:06;;;;;;;;;;;;;;;2.93;92.15;96008.22;4197622;28;5648;-72
2022/01/08 20:42:08;;;;;;;;;;;;;;;2.96;92.13;96006.31;4227200;28;5609;-72
2022/01/08 20:44:10;;;;;;;;;;;;;;;2.91;91.81;95996.34;4216901;28;5608;-72
2022/01/08 20:46:16;;;;;;;;;;;;;;;2.61;94.32;95985.59;4205824;28;5078;-72
2022/01/08 20:48:18;;;;;;;;;;;;;;;2.65;93.53;95983.47;4192754;28;5639;-72
2022/01/08 20:50:20;;;;;;;;;;;;;;;2.63;94.85;95980.22;4212424;28;5643;-74
2022/01/08 20:52:22;;;;;;;;;;;;;;;2.74;93.39;95979.06;4210005;28;5644;-70
2022/01/08 20:54:23;;;;;;;;;;;;;;;2.70;94.24;95967.31;4215335;28;5829;-69
2022/01/08 20:56:25;;;;;;;;;;;;;;;2.85;92.94;95965.69;4216654;28;5651;-67
2022/01/08 20:58:27;;;;;;;;;;;;;;;2.84;93.29;95948.41;4216949;28;5620;-68
2022/01/08 21:00:29;;;;;;;;;;;;;;;2.83;93.40;95947.56;4228469;28;5762;-67
2022/01/08 21:02:31;;;;;;;;;;;;;;;2.73;94.27;95928.66;4212798;28;5678;-67
2022/01/08 21:04:32;;;;;;;;;;;;;;;2.99;92.85;95925.03;4214771;28;5617;-67
2022/01/08 21:06:34;;;;;;;;;;;;;;;3.03;92.16;95913.25;4213145;28;5796;-68
2022/01/08 21:08:37;;;;;;;;;;;;;;;3.03;91.96;95894.97;4181486;28;5642;-68
2022/01/08 21:10:38;;;;;;;;;;;;;;;2.97;92.55;95885.22;4214170;28;5077;-68
2022/01/08 21:12:40;;;;;;;;;;;;;;;3.02;92.34;95880.28;4184752;28;7671;-68
2022/01/08 21:14:42;;;;;;;;;;;;;;;3.08;91.71;95871.78;4217294;28;5617;-68
2022/01/08 21:16:44;;;;;;;;;;;;;;;3.14;91.47;95848.41;4212581;28;5633;-68